createdAt,value
2022-10-29T06:53:29.759Z,16.40
2022-10-29T06:55:58.494Z,16.30
2022-10-29T06:58:25.267Z,16.50
2022-10-29T07:00:52.536Z,16.80
2022-10-29T07:03:21.321Z,17.20
2022-10-29T07:05:54.670Z,17.50
2022-10-29T07:08:21.572Z,17.80
2022-10-29T07:10:51.366Z,18.00
2022-10-29T07:13:18.277Z,18.30
2022-10-29T07:15:45.036Z,18.40
2022-10-29T07:18:12.431Z,18.60
2022-10-29T07:20:42.043Z,18.80
2022-10-29T07:23:10.010Z,18.90
2022-10-29T07:25:38.586Z,19.00
2022-10-29T07:28:06.820Z,19.10
2022-10-29T07:30:34.596Z,19.20
2022-10-29T07:33:01.530Z,19.40
2022-10-29T07:35:28.787Z,19.40
2022-10-29T07:38:03.793Z,19.50
2022-10-29T07:40:36.041Z,19.60
2022-10-29T07:43:02.983Z,19.70
2022-10-29T07:45:29.817Z,19.80
2022-10-29T07:48:04.462Z,19.80
2022-10-29T07:50:32.403Z,19.90
2022-10-29T07:53:00.509Z,20.00
2022-10-29T07:55:30.817Z,20.00
2022-10-29T07:58:03.002Z,20.10
2022-10-29T08:00:34.752Z,20.20
2022-10-29T08:03:01.646Z,20.20
2022-10-29T08:05:30.065Z,20.30
2022-10-29T08:07:57.831Z,20.30
2022-10-29T08:10:25.485Z,20.40
2022-10-29T08:12:58.086Z,20.50
2022-10-29T08:15:26.121Z,20.50
2022-10-29T08:17:53.029Z,20.60
2022-10-29T08:20:20.543Z,20.60
2022-10-29T08:22:47.293Z,20.60
2022-10-29T08:25:15.004Z,20.70
2022-10-29T08:27:42.793Z,20.70
2022-10-29T08:30:13.085Z,20.80
2022-10-29T08:32:46.749Z,20.80
2022-10-29T08:35:14.564Z,20.90
2022-10-29T08:37:45.449Z,20.90
2022-10-29T08:40:18.314Z,20.90
2022-10-29T08:43:19.607Z,21.00
2022-10-29T08:45:49.275Z,21.00
2022-10-29T08:48:44.424Z,21.00
2022-10-29T08:51:25.816Z,21.10
2022-10-29T08:54:25.003Z,21.10
2022-10-29T08:56:51.565Z,21.20
2022-10-29T08:59:23.795Z,21.20
2022-10-29T09:01:53.657Z,21.30
2022-10-29T09:04:36.668Z,21.30
2022-10-29T09:07:42.144Z,21.30
2022-10-29T09:10:27.709Z,21.40
2022-10-29T09:12:57.875Z,21.40
2022-10-29T09:15:44.579Z,21.40
2022-10-29T09:18:28.192Z,21.50
2022-10-29T09:21:00.916Z,21.50
2022-10-29T09:23:58.544Z,21.50
2022-10-29T09:26:25.264Z,21.50
2022-10-29T09:28:59.069Z,21.50
2022-10-29T09:31:42.669Z,21.50
2022-10-29T09:34:38.683Z,21.50
2022-10-29T09:37:28.110Z,21.60
2022-10-29T09:39:57.790Z,21.60
2022-10-29T09:42:35.484Z,21.60
2022-10-29T09:45:09.332Z,21.60
2022-10-29T09:47:55.683Z,21.60
2022-10-29T09:50:25.987Z,21.60
2022-10-29T09:52:53.455Z,21.70
2022-10-29T09:55:32.325Z,21.70
2022-10-29T09:57:59.150Z,21.70
2022-10-29T10:00:29.241Z,21.70
2022-10-29T10:03:17.577Z,21.70
2022-10-29T10:06:06.489Z,21.70
2022-10-29T10:08:35.394Z,21.70
2022-10-29T10:11:07.413Z,21.70
2022-10-29T10:13:38.385Z,21.80
2022-10-29T10:16:06.662Z,21.80
2022-10-29T10:18:33.614Z,21.80
2022-10-29T10:21:05.734Z,21.80
2022-10-29T10:23:55.396Z,21.90
2022-10-29T10:26:28.228Z,21.90
2022-10-29T10:29:24.958Z,22.00
2022-10-29T10:31:57.690Z,22.00
2022-10-29T10:34:37.921Z,22.10
2022-10-29T10:37:10.639Z,22.10
2022-10-29T10:39:39.061Z,22.20
2022-10-29T10:42:20.898Z,22.30
2022-10-29T10:44:55.450Z,22.30
2022-10-29T10:47:25.388Z,22.40
2022-10-29T10:49:52.505Z,22.40
2022-10-29T10:52:30.246Z,22.50
2022-10-29T10:55:01.409Z,22.50
2022-10-29T10:57:37.817Z,22.60
2022-10-29T11:00:17.967Z,22.60
2022-10-29T11:02:44.715Z,22.60
2022-10-29T11:05:20.449Z,22.70
2022-10-29T11:08:06.507Z,22.70
2022-10-29T11:10:56.872Z,22.70
2022-10-29T11:13:27.103Z,22.70
2022-10-29T11:16:20.868Z,22.80
2022-10-29T11:19:12.928Z,22.80
2022-10-29T11:21:46.577Z,22.90
2022-10-29T11:24:35.060Z,22.90
2022-10-29T11:27:12.177Z,22.90
2022-10-29T11:30:12.195Z,22.90
2022-10-29T11:33:02.091Z,23.00
2022-10-29T11:35:38.272Z,23.00
2022-10-29T11:38:21.843Z,23.00
2022-10-29T11:41:09.957Z,23.00
2022-10-29T11:43:36.751Z,23.00
2022-10-29T11:46:23.246Z,23.10
2022-10-29T11:48:59.256Z,23.10
2022-10-29T11:51:42.283Z,23.10
2022-10-29T11:54:24.164Z,23.10
2022-10-29T11:57:24.665Z,23.20
2022-10-29T12:00:14.113Z,23.20
2022-10-29T12:03:02.756Z,23.20
2022-10-29T12:05:50.115Z,23.20
2022-10-29T12:08:16.904Z,23.30
2022-10-29T12:11:05.091Z,23.30
2022-10-29T12:14:11.303Z,23.30
2022-10-29T12:16:47.084Z,23.30
2022-10-29T12:19:34.851Z,23.30
2022-10-29T12:22:17.101Z,23.40
2022-10-29T12:25:08.025Z,23.40
2022-10-29T12:28:08.931Z,23.40
2022-10-29T12:30:45.667Z,23.40
2022-10-29T12:33:36.643Z,23.50
2022-10-29T12:36:30.195Z,23.50
2022-10-29T12:38:58.214Z,23.50
2022-10-29T12:41:31.533Z,23.50
2022-10-29T12:44:09.818Z,23.50
2022-10-29T12:46:51.399Z,23.50
2022-10-29T12:49:56.543Z,23.60
2022-10-29T12:52:29.450Z,23.60
2022-10-29T12:54:57.230Z,23.60
2022-10-29T12:57:34.642Z,23.60
2022-10-29T13:00:40.654Z,23.60
2022-10-29T13:03:08.404Z,23.60
2022-10-29T13:05:38.459Z,23.70
2022-10-29T13:08:05.179Z,23.70
2022-10-29T13:10:34.707Z,23.70
2022-10-29T13:13:16.958Z,23.70
2022-10-29T13:15:47.441Z,23.70
2022-10-29T13:18:51.017Z,23.70
2022-10-29T13:21:56.434Z,23.80
2022-10-29T13:24:23.350Z,23.80
2022-10-29T13:27:24.682Z,23.80
2022-10-29T13:30:25.690Z,23.80
2022-10-29T13:32:56.830Z,23.80
2022-10-29T13:35:27.342Z,23.90
2022-10-29T13:38:11.247Z,23.80
2022-10-29T13:40:40.175Z,23.80
2022-10-29T13:43:18.477Z,23.80
2022-10-29T13:45:52.863Z,23.80
2022-10-29T13:48:25.178Z,23.90
2022-10-29T13:50:54.637Z,23.90
2022-10-29T13:53:31.019Z,23.90
2022-10-29T13:55:59.167Z,23.90
2022-10-29T13:58:36.532Z,23.90
2022-10-29T14:01:08.936Z,23.90
2022-10-29T14:03:46.985Z,23.90
2022-10-29T14:06:23.037Z,23.90
2022-10-29T14:08:58.980Z,23.90
2022-10-29T14:11:36.823Z,23.90
2022-10-29T14:14:05.038Z,23.90
2022-10-29T14:16:33.168Z,23.90
2022-10-29T14:19:14.146Z,23.90
2022-10-29T14:21:40.966Z,23.90
2022-10-29T14:24:10.849Z,23.90
2022-10-29T14:26:39.758Z,23.90
2022-10-29T14:29:25.808Z,23.90
2022-10-29T14:32:04.714Z,23.90
2022-10-29T14:34:31.618Z,23.90
2022-10-29T14:37:06.682Z,23.90
2022-10-29T14:39:48.519Z,23.90
2022-10-29T14:42:54.315Z,23.90
2022-10-29T14:45:30.154Z,24.00
2022-10-29T14:48:09.519Z,24.00
2022-10-29T14:50:36.874Z,24.00
2022-10-29T14:53:19.821Z,24.00
2022-10-29T14:55:49.613Z,24.00
2022-10-29T14:58:26.547Z,24.00
2022-10-29T15:01:03.518Z,24.00
2022-10-29T15:03:33.071Z,24.00
2022-10-29T15:06:40.431Z,24.00
2022-10-29T15:09:20.071Z,24.00
2022-10-29T15:12:00.453Z,24.00
2022-10-29T15:14:47.387Z,24.00
2022-10-29T15:17:21.251Z,24.00
2022-10-29T15:19:51.504Z,24.00
2022-10-29T15:22:24.803Z,24.00
2022-10-29T15:24:52.686Z,24.00
2022-10-29T15:27:19.671Z,24.00
2022-10-29T15:29:49.036Z,24.00
2022-10-29T15:32:18.331Z,24.00
2022-10-29T15:34:57.297Z,24.00
2022-10-29T15:37:25.886Z,24.00
2022-10-29T15:40:01.924Z,24.00
2022-10-29T15:42:32.176Z,24.00
2022-10-29T15:45:08.389Z,24.00
2022-10-29T15:47:37.309Z,24.00
2022-10-29T15:50:05.894Z,24.00
2022-10-29T15:52:44.482Z,24.00
2022-10-29T15:55:26.549Z,24.00
2022-10-29T15:57:56.332Z,24.00
2022-10-29T16:00:23.903Z,24.00
2022-10-29T16:02:51.291Z,24.00
2022-10-29T16:05:18.577Z,24.00
2022-10-29T16:07:47.005Z,24.00
2022-10-29T16:10:21.380Z,24.00
2022-10-29T16:12:49.628Z,24.00
2022-10-29T16:15:19.254Z,24.00
2022-10-29T16:17:47.427Z,24.00
2022-10-29T16:20:19.125Z,24.00
2022-10-29T16:22:47.412Z,24.00
2022-10-29T16:25:26.196Z,24.00
2022-10-29T16:27:54.164Z,23.90
2022-10-29T16:30:22.449Z,23.90
2022-10-29T16:32:50.298Z,23.90
2022-10-29T16:35:19.221Z,23.90
2022-10-29T16:37:46.011Z,23.80
2022-10-29T16:40:13.544Z,23.80
2022-10-29T16:42:40.719Z,23.80
2022-10-29T16:45:11.040Z,23.70
2022-10-29T16:47:37.919Z,23.70
2022-10-29T16:50:05.234Z,23.70
2022-10-29T16:52:33.155Z,23.70
2022-10-29T16:55:00.339Z,23.60
2022-10-29T16:57:27.226Z,23.60
2022-10-29T16:59:54.009Z,23.60
2022-10-29T17:02:20.792Z,23.60
2022-10-29T17:04:47.621Z,23.50
2022-10-29T17:07:14.485Z,23.50
2022-10-29T17:09:41.449Z,23.40
2022-10-29T17:12:08.440Z,23.50
2022-10-29T17:14:35.238Z,23.40
2022-10-29T17:17:02.039Z,23.40
2022-10-29T17:19:29.513Z,23.40
2022-10-29T17:21:58.737Z,23.40
2022-10-29T17:24:26.609Z,23.40
2022-10-29T17:26:54.033Z,23.30
2022-10-29T17:29:20.946Z,23.30
2022-10-29T17:31:48.126Z,23.30
2022-10-29T17:34:15.866Z,23.30
2022-10-29T17:36:44.417Z,23.30
2022-10-29T17:39:11.603Z,23.20
2022-10-29T17:41:38.743Z,23.20
2022-10-29T17:44:05.667Z,23.20
2022-10-29T17:46:32.731Z,23.20
2022-10-29T17:48:59.663Z,23.20
2022-10-29T17:51:26.494Z,23.20
2022-10-29T17:53:53.483Z,23.10
2022-10-29T17:56:20.430Z,23.10
2022-10-29T17:58:47.255Z,23.10
2022-10-29T18:01:15.016Z,23.10
2022-10-29T18:03:42.162Z,23.10
2022-10-29T18:06:12.310Z,23.10
2022-10-29T18:08:40.851Z,23.00
2022-10-29T18:11:18.791Z,23.00
2022-10-29T18:13:47.413Z,23.00
2022-10-29T18:16:19.665Z,23.00
2022-10-29T18:19:01.514Z,22.90
2022-10-29T18:21:30.138Z,22.90
2022-10-29T18:23:57.082Z,22.90
2022-10-29T18:26:28.836Z,22.80
2022-10-29T18:28:56.307Z,22.80
2022-10-29T18:31:25.423Z,22.80
2022-10-29T18:33:52.439Z,22.70
2022-10-29T18:36:19.643Z,22.70
2022-10-29T18:38:51.259Z,22.70
2022-10-29T18:41:18.262Z,22.70
2022-10-29T18:43:45.363Z,22.70
2022-10-29T18:46:13.093Z,22.70
2022-10-29T18:48:42.311Z,22.60
2022-10-29T18:51:20.876Z,22.60
2022-10-29T18:53:47.845Z,22.60
2022-10-29T18:56:19.339Z,22.50
2022-10-29T18:58:46.774Z,22.60
2022-10-29T19:01:19.466Z,22.50
2022-10-29T19:03:50.986Z,22.50
2022-10-29T19:06:19.662Z,22.50
2022-10-29T19:08:46.845Z,22.50
2022-10-29T19:11:20.037Z,22.50
2022-10-29T19:13:51.669Z,22.50
2022-10-29T19:16:19.561Z,22.40
2022-10-29T19:18:46.714Z,22.40
2022-10-29T19:21:18.549Z,22.40
2022-10-29T19:23:46.377Z,22.40
2022-10-29T19:26:18.540Z,22.40
2022-10-29T19:28:46.735Z,22.30
2022-10-29T19:31:27.093Z,22.30
2022-10-29T19:34:02.800Z,22.30
2022-10-29T19:36:30.452Z,22.30
2022-10-29T19:38:57.802Z,22.30
2022-10-29T19:41:25.459Z,22.30
2022-10-29T19:43:52.574Z,22.30
2022-10-29T19:46:24.636Z,22.20
2022-10-29T19:48:54.711Z,22.20
2022-10-29T19:51:23.633Z,22.20
2022-10-29T19:53:54.192Z,22.20
2022-10-29T19:56:21.944Z,22.20
2022-10-29T19:58:49.575Z,22.20
2022-10-29T20:01:18.380Z,22.20
2022-10-29T20:03:46.442Z,22.10
2022-10-29T20:06:14.706Z,22.10
2022-10-29T20:08:41.749Z,22.10
2022-10-29T20:11:09.437Z,22.10
2022-10-29T20:13:38.034Z,22.10
2022-10-29T20:16:16.971Z,22.10
2022-10-29T20:18:44.363Z,22.00
2022-10-29T20:21:12.485Z,22.00
2022-10-29T20:23:39.853Z,22.00
2022-10-29T20:26:07.241Z,22.00
2022-10-29T20:28:35.011Z,22.00
2022-10-29T20:31:24.343Z,22.00
2022-10-29T20:33:56.895Z,21.90
2022-10-29T20:36:26.124Z,21.90
2022-10-29T20:38:54.607Z,21.90
2022-10-29T20:41:22.815Z,21.90
2022-10-29T20:43:54.917Z,21.90
2022-10-29T20:46:22.978Z,21.90
2022-10-29T20:48:49.927Z,21.90
2022-10-29T20:51:17.606Z,21.90
2022-10-29T20:53:44.972Z,21.90
2022-10-29T20:56:15.102Z,21.80
2022-10-29T20:58:44.510Z,21.80
2022-10-29T21:01:18.273Z,21.80
2022-10-29T21:03:47.230Z,21.80
2022-10-29T21:06:17.027Z,21.80
2022-10-29T21:08:47.990Z,21.70
2022-10-29T21:11:16.490Z,21.70
2022-10-29T21:13:43.872Z,21.70
2022-10-29T21:16:26.723Z,21.70
2022-10-29T21:18:59.650Z,21.70
2022-10-29T21:21:30.059Z,21.60
2022-10-29T21:23:57.914Z,21.60
2022-10-29T21:26:26.751Z,21.60
2022-10-29T21:28:54.035Z,21.60
2022-10-29T21:31:22.232Z,21.50
2022-10-29T21:33:50.987Z,21.50
2022-10-29T21:36:19.346Z,21.50
2022-10-29T21:38:46.522Z,21.50
2022-10-29T21:41:14.077Z,21.50
2022-10-29T21:43:40.853Z,21.50
2022-10-29T21:46:08.022Z,21.40
2022-10-29T21:48:35.040Z,21.40
2022-10-29T21:51:07.091Z,21.50
2022-10-29T21:53:34.598Z,21.40
2022-10-29T21:56:03.866Z,21.40
2022-10-29T21:58:31.457Z,21.40
2022-10-29T22:01:03.060Z,21.40
2022-10-29T22:03:31.594Z,21.40
2022-10-29T22:06:17.492Z,21.40
2022-10-29T22:08:45.745Z,21.40
2022-10-29T22:11:14.721Z,21.40
2022-10-29T22:13:41.703Z,21.40
2022-10-29T22:16:09.126Z,21.40
2022-10-29T22:18:36.601Z,21.40
2022-10-29T22:21:10.619Z,21.40
2022-10-29T22:23:44.742Z,21.40
2022-10-29T22:26:12.872Z,21.40
2022-10-29T22:28:39.949Z,21.40
2022-10-29T22:31:07.155Z,21.40
2022-10-29T22:33:34.473Z,21.40
2022-10-29T22:36:07.091Z,21.30
2022-10-29T22:38:34.000Z,21.30
2022-10-29T22:41:08.456Z,21.30
2022-10-29T22:43:35.566Z,21.30
2022-10-29T22:46:03.750Z,21.30
2022-10-29T22:48:30.841Z,21.20
2022-10-29T22:51:11.220Z,21.30
2022-10-29T22:53:38.099Z,21.20
2022-10-29T22:56:05.167Z,21.30
2022-10-29T22:58:32.361Z,21.30
2022-10-29T23:01:08.103Z,21.20
2022-10-29T23:03:35.286Z,21.20
2022-10-29T23:06:03.963Z,21.20
2022-10-29T23:08:31.672Z,21.20
2022-10-29T23:11:03.640Z,21.20
2022-10-29T23:13:30.394Z,21.20
2022-10-29T23:15:57.135Z,21.20
2022-10-29T23:18:23.937Z,21.20
2022-10-29T23:20:59.307Z,21.20
2022-10-29T23:23:26.457Z,21.10
2022-10-29T23:25:57.749Z,21.20
2022-10-29T23:28:24.587Z,21.10
2022-10-29T23:30:55.854Z,21.10
2022-10-29T23:33:23.158Z,21.10
2022-10-29T23:35:50.037Z,21.10
2022-10-29T23:38:17.315Z,21.10
2022-10-29T23:40:45.328Z,21.10
2022-10-29T23:43:12.701Z,21.10
2022-10-29T23:45:41.329Z,21.10
2022-10-29T23:48:11.323Z,21.00
2022-10-29T23:50:38.771Z,21.00
2022-10-29T23:53:07.223Z,21.00
2022-10-29T23:55:34.712Z,21.00
2022-10-29T23:58:01.998Z,21.00
